createdAt,value
2023-01-23T04:46:25.068Z,435.60
2023-01-23T04:48:51.688Z,438.02
2023-01-23T04:51:18.335Z,439.00
2023-01-23T04:53:45.000Z,435.73
2023-01-23T04:56:11.593Z,442.75
2023-01-23T04:58:38.329Z,448.08
2023-01-23T05:01:06.280Z,436.33
2023-01-23T05:03:34.730Z,441.13
2023-01-23T05:06:01.463Z,427.45
2023-01-23T05:08:28.086Z,430.02
2023-01-23T05:10:54.937Z,429.20
2023-01-23T05:13:21.537Z,435.23
2023-01-23T05:15:48.249Z,431.60
2023-01-23T05:18:14.915Z,437.45
2023-01-23T05:20:41.608Z,445.58
2023-01-23T05:23:08.883Z,436.30
2023-01-23T05:25:35.598Z,439.25
2023-01-23T05:28:02.295Z,440.80
2023-01-23T05:30:28.971Z,439.95
2023-01-23T05:32:55.569Z,440.10
2023-01-23T05:35:22.183Z,450.63
2023-01-23T05:37:51.472Z,443.33
2023-01-23T05:40:19.764Z,448.63
2023-01-23T05:42:47.681Z,449.15
2023-01-23T05:45:14.469Z,451.38
2023-01-23T05:47:41.481Z,445.15
2023-01-23T05:50:12.605Z,452.92
2023-01-23T05:52:39.290Z,450.70
2023-01-23T05:55:06.337Z,452.08
2023-01-23T05:57:34.596Z,454.00
2023-01-23T06:00:01.289Z,456.33
2023-01-23T06:02:27.976Z,454.90
2023-01-23T06:04:55.856Z,451.13
2023-01-23T06:07:22.691Z,447.20
2023-01-23T06:09:49.332Z,455.63
2023-01-23T06:12:16.005Z,453.00
2023-01-23T06:14:42.629Z,448.13
2023-01-23T06:17:11.726Z,441.48
2023-01-23T06:19:38.375Z,435.77
2023-01-23T06:22:04.983Z,442.35
2023-01-23T06:24:31.646Z,435.95
2023-01-23T06:26:58.261Z,436.48
2023-01-23T06:29:24.931Z,434.42
2023-01-23T06:31:51.617Z,437.67
2023-01-23T06:34:18.293Z,439.33
2023-01-23T06:36:46.177Z,441.95
2023-01-23T06:39:15.103Z,439.77
2023-01-23T06:41:42.384Z,435.57
2023-01-23T06:44:09.032Z,443.55
2023-01-23T06:46:35.753Z,438.20
2023-01-23T06:49:05.211Z,443.38
2023-01-23T06:51:33.304Z,443.70
2023-01-23T06:54:00.085Z,445.13
2023-01-23T06:56:26.874Z,433.30
2023-01-23T06:58:53.556Z,438.35
2023-01-23T07:01:20.586Z,442.10
2023-01-23T07:03:47.602Z,445.35
2023-01-23T07:06:15.498Z,450.52
2023-01-23T07:08:42.767Z,441.77
2023-01-23T07:11:10.332Z,452.27
2023-01-23T07:13:37.098Z,451.42
2023-01-23T07:16:04.632Z,448.50
2023-01-23T07:18:32.703Z,457.05
2023-01-23T07:21:00.693Z,457.08
2023-01-23T07:23:27.500Z,455.63
2023-01-23T07:25:59.955Z,465.95
2023-01-23T07:28:27.212Z,471.70
2023-01-23T07:30:54.010Z,466.42
2023-01-23T07:33:20.662Z,464.95
2023-01-23T07:35:47.295Z,460.02
2023-01-23T07:38:13.902Z,458.58
2023-01-23T07:40:42.825Z,461.48
2023-01-23T07:43:09.667Z,462.50
2023-01-23T07:45:36.771Z,463.00
2023-01-23T07:48:04.138Z,459.50
2023-01-23T07:50:30.824Z,453.77
2023-01-23T07:52:57.496Z,452.30
2023-01-23T07:55:24.195Z,454.42
2023-01-23T07:57:50.842Z,459.50
2023-01-23T08:00:18.013Z,457.25
2023-01-23T08:02:44.929Z,457.75
2023-01-23T08:05:11.733Z,461.35
2023-01-23T08:07:38.500Z,458.00
2023-01-23T08:10:05.941Z,460.77
2023-01-23T08:12:32.565Z,458.55
2023-01-23T08:14:59.186Z,454.10
2023-01-23T08:17:25.923Z,457.55
2023-01-23T08:19:52.709Z,457.85
2023-01-23T08:22:19.355Z,470.40
2023-01-23T08:24:46.529Z,462.58
2023-01-23T08:27:13.252Z,461.65
2023-01-23T08:29:39.936Z,464.30
2023-01-23T08:32:06.669Z,468.00
2023-01-23T08:34:33.326Z,466.00
2023-01-23T08:36:59.952Z,468.23
2023-01-23T08:39:26.594Z,463.23
2023-01-23T08:41:53.255Z,455.38
2023-01-23T08:44:19.895Z,455.75
2023-01-23T08:46:46.659Z,455.93
2023-01-23T08:49:13.639Z,461.92
2023-01-23T08:51:40.278Z,467.92
2023-01-23T08:54:07.048Z,466.88
2023-01-23T08:56:33.655Z,470.10
2023-01-23T08:59:00.344Z,472.03
2023-01-23T09:01:27.629Z,488.20
2023-01-23T09:03:54.961Z,477.70
2023-01-23T09:06:23.100Z,473.60
2023-01-23T09:08:50.032Z,486.42
2023-01-23T09:11:17.877Z,477.48
2023-01-23T09:13:46.398Z,484.50
2023-01-23T09:16:13.179Z,484.33
2023-01-23T09:18:39.921Z,484.38
2023-01-23T09:21:12.781Z,486.00
2023-01-23T09:23:39.619Z,482.45
2023-01-23T09:26:08.996Z,482.02
2023-01-23T09:28:36.992Z,479.52
2023-01-23T09:31:08.761Z,471.92
2023-01-23T09:33:35.878Z,474.75
2023-01-23T09:36:03.692Z,463.95
2023-01-23T09:38:33.333Z,473.58
2023-01-23T09:41:06.725Z,472.67
2023-01-23T09:43:33.353Z,472.90
2023-01-23T09:46:09.003Z,477.00
2023-01-23T09:48:44.223Z,479.88
2023-01-23T09:51:26.226Z,476.70
2023-01-23T09:53:58.737Z,479.10
2023-01-23T09:56:41.203Z,477.90
2023-01-23T09:59:07.734Z,485.15
2023-01-23T10:01:34.416Z,489.15
2023-01-23T10:04:01.891Z,485.23
2023-01-23T10:06:32.092Z,482.80
2023-01-23T10:09:17.399Z,497.80
2023-01-23T10:12:17.141Z,485.30
2023-01-23T10:15:07.902Z,489.17
2023-01-23T10:17:52.623Z,480.02
2023-01-23T10:20:39.330Z,485.70
2023-01-23T10:23:24.801Z,491.80
2023-01-23T10:25:51.631Z,482.65
2023-01-23T10:28:38.828Z,483.80
2023-01-23T10:31:20.045Z,483.13
2023-01-23T10:33:54.443Z,486.23
2023-01-23T10:36:54.835Z,494.13
2023-01-23T10:39:34.767Z,495.80
2023-01-23T10:42:02.697Z,490.95
2023-01-23T10:44:29.969Z,489.88
2023-01-23T10:47:01.880Z,486.77
2023-01-23T10:49:40.176Z,493.20
2023-01-23T10:52:31.750Z,492.70
2023-01-23T10:54:58.765Z,497.00
2023-01-23T10:57:30.966Z,485.60
2023-01-23T11:00:04.965Z,484.60
2023-01-23T11:02:37.300Z,487.05
2023-01-23T11:05:52.455Z,487.63
2023-01-23T11:08:29.297Z,503.37
2023-01-23T11:11:15.893Z,503.83
2023-01-23T11:13:44.261Z,502.30
2023-01-23T11:16:21.804Z,491.02
2023-01-23T11:19:04.635Z,504.95
2023-01-23T11:21:37.043Z,500.08
2023-01-23T11:24:38.125Z,497.95
2023-01-23T11:27:30.885Z,496.38
2023-01-23T11:30:04.334Z,497.23
2023-01-23T11:32:35.313Z,488.58
2023-01-23T11:35:15.684Z,492.83
2023-01-23T11:37:42.706Z,496.15
2023-01-23T11:40:20.371Z,493.17
2023-01-23T11:42:47.584Z,492.63
2023-01-23T11:45:50.479Z,499.90
2023-01-23T11:48:20.292Z,497.60
2023-01-23T11:50:55.957Z,494.23
2023-01-23T11:53:41.788Z,492.45
2023-01-23T11:56:34.898Z,493.30
2023-01-23T11:59:21.865Z,503.55
2023-01-23T12:02:03.073Z,510.38
2023-01-23T12:04:57.535Z,509.38
2023-01-23T12:07:25.319Z,509.65
2023-01-23T12:10:26.281Z,520.55
2023-01-23T12:13:32.015Z,518.35
2023-01-23T12:16:15.029Z,518.55
2023-01-23T12:18:49.049Z,533.17
2023-01-23T12:21:22.752Z,519.33
2023-01-23T12:24:00.887Z,517.17
2023-01-23T12:26:31.027Z,511.50
2023-01-23T12:29:08.136Z,518.22
2023-01-23T12:31:37.784Z,521.75
2023-01-23T12:34:16.300Z,521.47
2023-01-23T12:37:29.898Z,524.92
2023-01-23T12:40:12.402Z,514.50
2023-01-23T12:42:55.594Z,519.78
2023-01-23T12:45:25.307Z,510.13
2023-01-23T12:48:12.108Z,512.15
2023-01-23T12:51:20.599Z,517.95
2023-01-23T12:53:51.231Z,513.63
2023-01-23T12:56:41.698Z,516.22
2023-01-23T12:59:20.607Z,509.00
2023-01-23T13:02:06.253Z,513.65
2023-01-23T13:05:11.971Z,517.30
2023-01-23T13:08:10.230Z,508.17
2023-01-23T13:11:21.837Z,509.87
2023-01-23T13:13:48.651Z,501.63
2023-01-23T13:16:20.048Z,499.70
2023-01-23T13:19:16.245Z,503.05
2023-01-23T13:22:04.759Z,504.13
2023-01-23T13:25:12.485Z,516.03
2023-01-23T13:27:58.768Z,500.48
2023-01-23T13:30:36.200Z,506.05
2023-01-23T13:33:05.864Z,492.67
2023-01-23T13:35:47.447Z,499.98
2023-01-23T13:38:25.386Z,508.13
2023-01-23T13:41:14.460Z,504.73
2023-01-23T13:43:55.870Z,509.35
2023-01-23T13:46:25.285Z,514.38
2023-01-23T14:21:46.273Z,517.97
2023-01-23T14:24:23.353Z,513.72
2023-01-23T14:26:52.732Z,518.25
2023-01-23T14:29:25.077Z,518.25
2023-01-23T14:31:52.463Z,502.67
2023-01-23T14:34:21.813Z,494.80
2023-01-23T14:37:10.592Z,514.45
2023-01-23T14:39:39.776Z,507.52
2023-01-23T14:42:13.849Z,514.55
2023-01-23T14:44:46.318Z,512.47
2023-01-23T14:47:25.386Z,510.58
2023-01-23T14:49:52.561Z,525.17
2023-01-23T14:52:25.742Z,515.07
2023-01-23T14:54:54.342Z,519.50
2023-01-23T14:57:24.020Z,519.65
2023-01-23T14:59:54.764Z,511.95
2023-01-23T15:02:36.383Z,504.08
2023-01-23T15:05:12.132Z,506.73
2023-01-23T15:07:51.044Z,500.95
2023-01-23T15:10:23.508Z,511.13
2023-01-23T15:13:05.825Z,516.03
2023-01-23T15:15:34.438Z,514.63
2023-01-23T15:18:02.050Z,513.88
2023-01-23T15:20:41.220Z,523.40
2023-01-23T15:23:37.132Z,525.42
2023-01-23T15:26:14.092Z,528.50
2023-01-23T15:28:40.953Z,535.17
2023-01-23T15:31:34.505Z,534.47
2023-01-23T15:34:16.540Z,534.95
2023-01-23T15:36:47.578Z,540.23
2023-01-23T15:39:24.965Z,537.85
2023-01-23T15:42:00.319Z,527.53
2023-01-23T15:44:29.215Z,531.22
2023-01-23T15:46:57.190Z,534.30
2023-01-23T15:49:26.161Z,528.55
2023-01-23T15:51:59.586Z,544.33
2023-01-23T15:54:36.203Z,541.70
2023-01-23T15:57:08.894Z,550.47
2023-01-23T15:59:36.366Z,538.75
2023-01-23T16:02:03.317Z,540.90
2023-01-23T16:04:30.008Z,544.00
2023-01-23T16:06:59.461Z,537.25
2023-01-23T16:09:32.647Z,537.45
2023-01-23T16:12:00.338Z,529.33
2023-01-23T16:14:27.505Z,543.30
2023-01-23T16:16:55.318Z,540.13
2023-01-23T16:19:23.298Z,532.28
2023-01-23T16:22:03.908Z,539.88
2023-01-23T16:24:39.084Z,535.23
2023-01-23T16:27:06.947Z,543.33
2023-01-23T16:29:34.594Z,540.90
2023-01-23T16:32:02.997Z,531.50
2023-01-23T16:34:29.725Z,539.45
2023-01-23T16:36:59.137Z,534.35
2023-01-23T16:39:29.532Z,528.10
2023-01-23T16:41:56.234Z,522.95
2023-01-23T16:44:23.952Z,524.85
2023-01-23T16:46:52.667Z,525.40
2023-01-23T16:49:20.095Z,537.80
2023-01-23T16:51:56.225Z,520.17
2023-01-23T16:54:23.561Z,525.67
2023-01-23T16:56:51.574Z,524.70
2023-01-23T16:59:28.243Z,526.53
2023-01-23T17:01:55.595Z,525.63
2023-01-23T17:04:22.431Z,521.53
2023-01-23T17:06:50.063Z,531.47
2023-01-23T17:09:17.410Z,524.95
2023-01-23T17:11:48.291Z,520.42
2023-01-23T17:14:26.051Z,523.60
2023-01-23T17:16:55.618Z,531.25
2023-01-23T17:19:31.748Z,534.15
2023-01-23T17:22:00.386Z,528.15
2023-01-23T17:24:27.455Z,533.22
2023-01-23T17:26:54.151Z,532.03
2023-01-23T17:29:21.152Z,539.47
2023-01-23T17:31:48.794Z,532.42
2023-01-23T17:34:25.895Z,528.92
2023-01-23T17:36:54.929Z,529.50
2023-01-23T17:39:21.865Z,530.75
2023-01-23T17:41:48.589Z,526.40
2023-01-23T17:44:15.199Z,534.78
2023-01-23T17:46:42.425Z,544.72
2023-01-23T17:49:27.970Z,545.35
2023-01-23T17:51:55.884Z,551.97
2023-01-23T17:54:22.858Z,547.05
2023-01-23T17:56:49.715Z,557.38
2023-01-23T17:59:16.334Z,547.13
2023-01-23T18:01:43.176Z,551.75
2023-01-23T18:04:17.294Z,540.53
2023-01-23T18:06:44.437Z,544.05
2023-01-23T18:09:11.719Z,537.83
2023-01-23T18:11:42.499Z,539.70
2023-01-23T18:14:39.501Z,540.35
2023-01-23T18:17:58.665Z,537.42
2023-01-23T18:20:25.969Z,529.38
2023-01-23T18:22:53.231Z,536.17
2023-01-23T18:25:21.623Z,531.35
2023-01-23T18:27:53.177Z,539.03
2023-01-23T18:30:45.099Z,535.73
2023-01-23T18:33:33.250Z,534.28
2023-01-23T18:36:18.182Z,544.63
2023-01-23T18:39:18.216Z,540.03
2023-01-23T18:42:12.816Z,530.90
2023-01-23T18:44:44.201Z,555.72
2023-01-23T18:47:16.413Z,561.17
2023-01-23T18:49:43.432Z,557.65
2023-01-23T18:52:51.783Z,547.80
2023-01-23T18:55:57.481Z,551.58
2023-01-23T18:58:41.939Z,546.03
2023-01-23T19:01:26.392Z,569.03
2023-01-23T19:03:54.959Z,568.60
2023-01-23T19:06:24.437Z,577.28
2023-01-23T19:08:53.505Z,556.95
2023-01-23T19:11:38.929Z,540.38
2023-01-23T19:14:08.607Z,540.60
2023-01-23T19:16:42.206Z,548.28
2023-01-23T19:19:15.619Z,551.55
2023-01-23T19:21:45.549Z,558.35
2023-01-23T19:24:12.330Z,544.65
2023-01-23T19:26:41.819Z,546.55
2023-01-23T19:29:20.909Z,546.45
2023-01-23T19:32:03.766Z,550.90
2023-01-23T19:34:31.397Z,553.08
2023-01-23T19:36:58.035Z,544.13
2023-01-23T19:39:24.697Z,551.72
2023-01-23T19:41:52.804Z,553.50
2023-01-23T19:44:22.335Z,540.50
2023-01-23T19:46:49.060Z,536.55
2023-01-23T19:49:15.774Z,540.65
2023-01-23T19:51:42.787Z,536.95
2023-01-23T19:54:14.480Z,541.08
2023-01-23T19:56:42.257Z,543.00
2023-01-23T19:59:09.236Z,547.30
2023-01-23T20:01:38.643Z,552.30
2023-01-23T20:04:12.911Z,538.43
2023-01-23T20:06:40.734Z,549.42
2023-01-23T20:09:08.538Z,542.58
2023-01-23T20:11:36.356Z,545.95
2023-01-23T20:14:03.390Z,555.93
2023-01-23T20:16:30.195Z,549.15
2023-01-23T20:18:56.867Z,570.53
2023-01-23T20:21:24.867Z,580.65
2023-01-23T20:23:51.848Z,568.13
2023-01-23T20:26:21.046Z,552.58
2023-01-23T20:28:49.685Z,571.20
2023-01-23T20:31:16.952Z,571.28
2023-01-23T20:33:43.681Z,566.22
2023-01-23T20:36:11.161Z,569.67
2023-01-23T20:38:39.458Z,572.78
2023-01-23T20:41:09.014Z,574.83
2023-01-23T20:43:35.698Z,581.33
2023-01-23T20:46:06.163Z,579.60
2023-01-23T20:48:37.429Z,585.88
2023-01-23T20:51:05.520Z,575.08
2023-01-23T20:53:34.839Z,568.15
2023-01-23T20:56:04.287Z,577.15
2023-01-23T20:58:51.147Z,586.95
2023-01-23T21:01:19.662Z,585.17
2023-01-23T21:03:48.315Z,577.40
2023-01-23T21:06:15.801Z,577.00
2023-01-23T21:08:43.105Z,572.35
2023-01-23T21:11:15.113Z,571.05
2023-01-23T21:13:42.470Z,568.57
2023-01-23T21:16:15.289Z,556.38
2023-01-23T21:18:46.165Z,552.42
2023-01-23T21:21:15.729Z,544.45
2023-01-23T21:23:42.426Z,540.23
2023-01-23T21:26:09.393Z,541.95
2023-01-23T21:28:36.727Z,550.58
2023-01-23T21:31:34.064Z,559.00
2023-01-23T21:34:06.529Z,544.60
2023-01-23T21:36:33.294Z,554.22
2023-01-23T21:38:59.991Z,548.65
2023-01-23T21:41:26.725Z,550.55
2023-01-23T21:43:53.334Z,556.78
2023-01-23T21:46:20.090Z,553.30
2023-01-23T21:48:46.723Z,546.80
2023-01-23T21:51:16.301Z,541.67
2023-01-23T21:53:45.336Z,549.70
2023-01-23T21:56:13.973Z,553.67
2023-01-23T21:58:42.371Z,553.78
2023-01-23T22:01:32.792Z,559.00
2023-01-23T22:04:14.847Z,559.25
2023-01-23T22:06:43.876Z,555.72
2023-01-23T22:09:15.524Z,555.92
2023-01-23T22:11:42.642Z,557.75
2023-01-23T22:14:11.210Z,555.87
2023-01-23T22:16:48.444Z,549.90
2023-01-23T22:19:17.850Z,545.33
2023-01-23T22:21:46.334Z,548.17
2023-01-23T22:24:13.634Z,551.17
2023-01-23T22:26:40.312Z,548.08
2023-01-23T22:29:07.211Z,547.47
2023-01-23T22:31:33.997Z,555.50
2023-01-23T22:34:00.791Z,545.75
2023-01-23T22:36:27.389Z,552.07
2023-01-23T22:38:55.336Z,542.97
2023-01-23T22:41:22.865Z,543.97
2023-01-23T22:43:54.348Z,537.95
2023-01-23T22:46:21.873Z,544.87
2023-01-23T22:48:48.996Z,532.20
2023-01-23T22:51:18.476Z,531.53
2023-01-23T22:53:45.323Z,536.00
2023-01-23T22:56:12.822Z,532.53
2023-01-23T22:58:39.669Z,540.63
2023-01-23T23:01:07.211Z,529.10
2023-01-23T23:03:34.866Z,538.10
2023-01-23T23:06:07.025Z,541.05
2023-01-23T23:08:34.699Z,543.22
2023-01-23T23:11:03.305Z,534.38
2023-01-23T23:13:32.016Z,542.13
2023-01-23T23:16:03.892Z,545.33
2023-01-23T23:18:30.760Z,536.17
2023-01-23T23:21:05.019Z,545.17
2023-01-23T23:23:31.697Z,534.30
2023-01-23T23:25:58.378Z,530.70
2023-01-23T23:28:26.615Z,539.53
2023-01-23T23:30:54.012Z,533.28
2023-01-23T23:33:21.626Z,537.85
2023-01-23T23:35:48.509Z,534.58
2023-01-23T23:38:16.007Z,534.33
2023-01-23T23:40:42.633Z,532.38
2023-01-23T23:43:09.676Z,531.65
2023-01-23T23:45:36.369Z,528.70
2023-01-23T23:48:03.236Z,530.13
2023-01-23T23:50:30.101Z,529.72
2023-01-23T23:52:56.728Z,535.10
2023-01-23T23:55:23.630Z,529.45
2023-01-23T23:57:50.399Z,529.75
